Home   Weather   USA   Puyallup   Past weeks
Flag for USA

Past Weather in Puyallup, Washington, USA — Yesterday and Last 2 Weeks

Currently: 55 °F. Overcast. (Weather station: Thun Field, USA). See more current weather

Past Weather in Puyallup — Graph

°F

Puyallup Temperature Yesterday

Maximum temperature yesterday: 81 °F (at 3:15 pm)
Minimum temperature yesterday: 55 °F (at 4:35 am)
Average temperature yesterday: 66 °F

High & Low Weather Summary for the Past Weeks

 TemperatureHumidityPressure
High86 °F (Jun 21, 4:15 pm)100% (Jun 8, 4:15 am)30.25 "Hg (Jun 8, 4:15 am)
Low43 °F (Jun 13, 3:55 am)15% (Jun 21, 4:55 pm)29.89 "Hg (Jun 21, 6:15 pm)
Average60 °F67%30.04 "Hg
* Reported Jun 8 4:15 am — Jun 23 4:55 am, Puyallup. Weather by CustomWeather, © 2024

Note: Actual official high and low records may vary slightly from our data, if they occured in-between our weather recording intervals... More about our weather records

Puyallup Weather History for the Previous 24 Hours

Scroll right to see more
 ConditionsComfort  
Time TempWeatherWind HumidityBarometerVisibility
4:55 am
Sun, Jun 23
55 °FOvercast.5 mph82%30.00 "Hg10 mi
4:35 am55 °FOvercast.6 mph82%30.00 "Hg10 mi
4:15 am55 °FMostly cloudy.6 mph88%29.99 "Hg10 mi
3:55 am55 °FMostly cloudy.5 mph88%29.99 "Hg10 mi
3:35 am57 °FOvercast.6 mph82%29.98 "Hg10 mi
3:15 am57 °FOvercast.9 mph82%29.98 "Hg10 mi
2:55 am59 °FOvercast.6 mph82%29.98 "Hg10 mi
2:35 am59 °FOvercast.7 mph82%29.98 "Hg10 mi
2:15 am59 °FOvercast.6 mph82%29.97 "Hg10 mi
1:55 am59 °FMostly cloudy.7 mph82%29.97 "Hg10 mi
1:35 am61 °FMostly cloudy.No wind83%29.97 "Hg10 mi
1:15 am61 °FMostly cloudy.5 mph88%29.97 "Hg10 mi
12:35 am61 °FMostly cloudy.6 mph88%29.96 "Hg10 mi
12:15 am61 °FOvercast.No wind88%29.95 "Hg10 mi
11:55 pm
Sat, Jun 22
63 °FMostly cloudy.No wind83%29.95 "Hg10 mi
11:35 pm63 °FMostly cloudy.No wind83%29.95 "Hg10 mi
11:15 pm63 °FMostly cloudy.5 mph83%29.95 "Hg10 mi
10:55 pm63 °FMostly cloudy.No wind83%29.95 "Hg10 mi
10:35 pm63 °FOvercast.No wind83%29.95 "Hg10 mi
10:15 pm63 °FOvercast.5 mph83%29.95 "Hg10 mi
9:55 pm64 °FMostly cloudy.No wind78%29.94 "Hg10 mi
9:35 pm66 °FOvercast.No wind73%29.93 "Hg10 mi
9:15 pm66 °FMostly cloudy.No wind73%29.93 "Hg10 mi
8:55 pm66 °FMore clouds than sun.No wind73%29.92 "Hg10 mi
8:35 pm68 °FMostly cloudy.No wind69%29.92 "Hg10 mi
8:15 pm70 °FOvercast.No wind64%29.92 "Hg10 mi
7:35 pm70 °FPartly sunny.No wind69%29.92 "Hg10 mi
7:15 pm72 °FScattered clouds.No wind65%29.92 "Hg10 mi
6:55 pm72 °FPassing clouds.No wind61%29.91 "Hg10 mi
6:15 pm73 °FOvercast.No wind57%29.90 "Hg10 mi
5:35 pm73 °FOvercast.5 mph53%29.90 "Hg10 mi
5:15 pm75 °FMostly cloudy.No wind47%29.90 "Hg10 mi
4:55 pm75 °FPartly sunny.No wind44%29.90 "Hg10 mi
4:35 pm75 °FOvercast.5 mph44%29.91 "Hg10 mi
4:15 pm77 °FOvercast.6 mph36%29.91 "Hg10 mi
3:55 pm79 °FPleasantly warm.7 mph30%29.91 "Hg10 mi
3:35 pm81 °FPleasantly warm.5 mph24%29.91 "HgN/A
3:15 pm81 °FPartly sunny.6 mph26%29.91 "Hg10 mi
2:55 pm79 °FPassing clouds.No wind24%29.91 "Hg10 mi
2:35 pm79 °FSunny.5 mph26%29.91 "Hg10 mi
2:15 pm79 °FPartly sunny.5 mph26%29.91 "Hg10 mi
1:35 pm75 °FPartly sunny.8 mph25%29.92 "Hg10 mi
1:15 pm75 °FPartly sunny.6 mph27%29.93 "Hg10 mi
12:35 pm72 °FSunny.No wind29%29.93 "Hg10 mi
12:15 pm72 °FSunny.No wind33%29.93 "Hg10 mi
11:55 am68 °FSunny.No wind40%29.94 "Hg10 mi
11:35 am68 °FSunny.No wind38%29.94 "HgN/A
11:15 am68 °FSunny.3 mph38%29.94 "Hg10 mi
10:55 am68 °FSunny.No wind35%29.93 "Hg10 mi
10:35 am68 °FSunny.No wind35%29.94 "Hg10 mi
10:15 am66 °FSunny.No wind37%29.94 "Hg10 mi
9:55 am68 °FSunny.No wind35%29.94 "Hg10 mi
9:35 am68 °FSunny.No wind38%29.94 "Hg10 mi
9:15 am64 °FSunny.No wind46%29.95 "Hg10 mi
8:55 am63 °FSunny.No wind45%29.94 "Hg10 mi
8:35 am63 °FSunny.No wind45%29.95 "Hg10 mi
8:15 am61 °FSunny.No wind48%29.95 "Hg10 mi
7:35 am59 °FSunny.No wind59%29.95 "Hg10 mi
7:15 am59 °FSunny.No wind59%29.95 "Hg10 mi
6:55 am59 °FSunny.No wind68%29.94 "Hg10 mi
6:35 am57 °FSunny.No wind67%29.95 "Hg10 mi
Weather by CustomWeather, © 2024

See weather overview